sensor_id;sensor_type;location;lat;lon;timestamp;pressure;altitude;pressure_sealevel;temperature;humidity
42001;BME280;27689;48.390;10.856;2023-10-08T00:01:04;96908.72;;;16.85;61.71
42001;BME280;27689;48.390;10.856;2023-10-08T00:03:50;96905.72;;;16.80;61.83
42001;BME280;27689;48.390;10.856;2023-10-08T00:06:34;96902.75;;;16.83;61.69
42001;BME280;27689;48.390;10.856;2023-10-08T00:09:18;96915.47;;;16.79;62.01
42001;BME280;27689;48.390;10.856;2023-10-08T00:12:04;96913.00;;;16.94;61.17
42001;BME280;27689;48.390;10.856;2023-10-08T00:14:48;96908.88;;;16.83;61.72
42001;BME280;27689;48.390;10.856;2023-10-08T00:17:33;96910.50;;;16.92;61.29
42001;BME280;27689;48.390;10.856;2023-10-08T00:20:17;96916.00;;;16.91;61.34
42001;BME280;27689;48.390;10.856;2023-10-08T00:23:09;96912.34;;;16.84;61.80
42001;BME280;27689;48.390;10.856;2023-10-08T00:25:54;96904.75;;;16.89;61.46
42001;BME280;27689;48.390;10.856;2023-10-08T00:28:38;96907.06;;;16.76;62.12
42001;BME280;27689;48.390;10.856;2023-10-08T00:31:29;96898.13;;;16.69;62.42
42001;BME280;27689;48.390;10.856;2023-10-08T00:34:21;96901.44;;;16.71;62.39
42001;BME280;27689;48.390;10.856;2023-10-08T00:37:05;96899.78;;;16.70;62.61
42001;BME280;27689;48.390;10.856;2023-10-08T00:39:52;96898.97;;;16.69;62.88
42001;BME280;27689;48.390;10.856;2023-10-08T00:42:40;96890.84;;;16.63;63.07
42001;BME280;27689;48.390;10.856;2023-10-08T00:45:30;96890.34;;;16.67;62.72
42001;BME280;27689;48.390;10.856;2023-10-08T00:48:14;96893.34;;;16.72;62.76
42001;BME280;27689;48.390;10.856;2023-10-08T00:51:04;96882.25;;;16.69;62.89
42001;BME280;27689;48.390;10.856;2023-10-08T00:54:07;96866.88;;;16.64;63.08
42001;BME280;27689;48.390;10.856;2023-10-08T00:56:52;96874.78;;;16.56;63.65
42001;BME280;27689;48.390;10.856;2023-10-08T00:59:40;96866.03;;;16.55;63.91
42001;BME280;27689;48.390;10.856;2023-10-08T01:02:33;96861.75;;;16.63;63.12
42001;BME280;27689;48.390;10.856;2023-10-08T01:05:29;96861.56;;;16.64;63.07
42001;BME280;27689;48.390;10.856;2023-10-08T01:08:26;96866.69;;;16.66;63.04
42001;BME280;27689;48.390;10.856;2023-10-08T01:11:31;96863.06;;;16.67;63.00
42001;BME280;27689;48.390;10.856;2023-10-08T01:14:26;96861.09;;;16.69;62.74
42001;BME280;27689;48.390;10.856;2023-10-08T01:17:16;96862.88;;;16.60;63.24
42001;BME280;27689;48.390;10.856;2023-10-08T01:20:03;96858.44;;;16.61;62.85
42001;BME280;27689;48.390;10.856;2023-10-08T01:23:06;96853.31;;;16.67;63.05
42001;BME280;27689;48.390;10.856;2023-10-08T01:25:53;96854.28;;;16.58;63.05
42001;BME280;27689;48.390;10.856;2023-10-08T01:28:54;96853.63;;;16.64;62.54
42001;BME280;27689;48.390;10.856;2023-10-08T01:31:38;96856.13;;;16.66;62.46
42001;BME280;27689;48.390;10.856;2023-10-08T01:34:22;96856.28;;;16.72;62.13
42001;BME280;27689;48.390;10.856;2023-10-08T01:37:16;96859.59;;;16.74;61.82
42001;BME280;27689;48.390;10.856;2023-10-08T01:40:03;96847.19;;;16.75;61.92
42001;BME280;27689;48.390;10.856;2023-10-08T01:42:52;96862.56;;;16.71;61.98
42001;BME280;27689;48.390;10.856;2023-10-08T01:45:37;96855.59;;;16.62;61.87
42001;BME280;27689;48.390;10.856;2023-10-08T01:48:24;96860.75;;;16.72;61.55
42001;BME280;27689;48.390;10.856;2023-10-08T01:51:11;96851.84;;;16.73;61.26
42001;BME280;27689;48.390;10.856;2023-10-08T01:54:03;96858.78;;;16.74;61.41
42001;BME280;27689;48.390;10.856;2023-10-08T01:56:53;96849.03;;;16.74;60.73
42001;BME280;27689;48.390;10.856;2023-10-08T01:59:37;96855.81;;;16.77;60.54
42001;BME280;27689;48.390;10.856;2023-10-08T02:02:22;96854.31;;;16.74;60.61
42001;BME280;27689;48.390;10.856;2023-10-08T02:05:06;96847.88;;;16.77;60.51
42001;BME280;27689;48.390;10.856;2023-10-08T02:07:50;96850.84;;;16.74;60.39
42001;BME280;27689;48.390;10.856;2023-10-08T02:10:39;96846.38;;;16.66;61.13
42001;BME280;27689;48.390;10.856;2023-10-08T02:13:24;96849.84;;;16.67;60.88
42001;BME280;27689;48.390;10.856;2023-10-08T02:16:09;96853.16;;;16.69;61.09
42001;BME280;27689;48.390;10.856;2023-10-08T02:18:52;96856.28;;;16.72;60.51
42001;BME280;27689;48.390;10.856;2023-10-08T02:21:40;96850.00;;;16.73;60.82
42001;BME280;27689;48.390;10.856;2023-10-08T02:24:25;96840.41;;;16.64;61.43
42001;BME280;27689;48.390;10.856;2023-10-08T02:27:09;96846.69;;;16.63;61.01
42001;BME280;27689;48.390;10.856;2023-10-08T02:29:54;96840.56;;;16.71;60.81
42001;BME280;27689;48.390;10.856;2023-10-08T02:32:38;96852.66;;;16.73;60.71
42001;BME280;27689;48.390;10.856;2023-10-08T02:35:26;96836.13;;;16.71;60.53
42001;BME280;27689;48.390;10.856;2023-10-08T02:38:12;96838.91;;;16.62;61.03
42001;BME280;27689;48.390;10.856;2023-10-08T02:40:56;96827.69;;;16.68;59.87
42001;BME280;27689;48.390;10.856;2023-10-08T02:43:40;96832.63;;;16.71;60.42
42001;BME280;27689;48.390;10.856;2023-10-08T02:46:26;96825.34;;;16.65;60.50
42001;BME280;27689;48.390;10.856;2023-10-08T02:49:17;96829.34;;;16.69;60.32
42001;BME280;27689;48.390;10.856;2023-10-08T02:52:04;96823.53;;;16.81;59.77
42001;BME280;27689;48.390;10.856;2023-10-08T02:54:48;96831.50;;;16.73;60.02
42001;BME280;27689;48.390;10.856;2023-10-08T02:57:36;96826.69;;;16.69;60.35
42001;BME280;27689;48.390;10.856;2023-10-08T03:00:21;96823.69;;;16.55;60.78
42001;BME280;27689;48.390;10.856;2023-10-08T03:03:07;96829.66;;;16.66;60.29
42001;BME280;27689;48.390;10.856;2023-10-08T03:05:59;96824.03;;;16.69;60.30
42001;BME280;27689;48.390;10.856;2023-10-08T03:08:43;96831.97;;;16.52;61.17
42001;BME280;27689;48.390;10.856;2023-10-08T03:11:27;96828.31;;;16.53;60.74
42001;BME280;27689;48.390;10.856;2023-10-08T03:14:11;96834.59;;;16.52;60.50
42001;BME280;27689;48.390;10.856;2023-10-08T03:16:59;96838.25;;;16.51;60.26
42001;BME280;27689;48.390;10.856;2023-10-08T03:19:51;96840.88;;;16.51;60.25
42001;BME280;27689;48.390;10.856;2023-10-08T03:22:35;96845.50;;;16.49;60.42
42001;BME280;27689;48.390;10.856;2023-10-08T03:25:21;96847.00;;;16.52;60.19
42001;BME280;27689;48.390;10.856;2023-10-08T03:28:08;96853.28;;;16.51;60.23
42001;BME280;27689;48.390;10.856;2023-10-08T03:30:52;96847.47;;;16.47;60.31
42001;BME280;27689;48.390;10.856;2023-10-08T03:33:46;96847.84;;;16.44;60.14
42001;BME280;27689;48.390;10.856;2023-10-08T03:36:35;96844.03;;;16.47;59.57
42001;BME280;27689;48.390;10.856;2023-10-08T03:39:19;96844.03;;;16.47;58.67
42001;BME280;27689;48.390;10.856;2023-10-08T03:42:04;96838.91;;;16.53;58.89
42001;BME280;27689;48.390;10.856;2023-10-08T03:44:53;96842.06;;;16.57;58.51
42001;BME280;27689;48.390;10.856;2023-10-08T03:47:39;96821.56;;;16.43;58.37
42001;BME280;27689;48.390;10.856;2023-10-08T03:50:30;96832.44;;;16.48;57.61
42001;BME280;27689;48.390;10.856;2023-10-08T03:53:16;96822.53;;;16.58;57.03
42001;BME280;27689;48.390;10.856;2023-10-08T03:56:00;96834.28;;;16.64;56.44
42001;BME280;27689;48.390;10.856;2023-10-08T03:58:48;96818.25;;;16.65;55.92
42001;BME280;27689;48.390;10.856;2023-10-08T04:01:32;96822.56;;;16.66;55.87
42001;BME280;27689;48.390;10.856;2023-10-08T04:04:18;96822.56;;;16.74;55.27
42001;BME280;27689;48.390;10.856;2023-10-08T04:07:02;96826.84;;;16.67;55.79
42001;BME280;27689;48.390;10.856;2023-10-08T04:10:06;96828.34;;;16.70;55.20
42001;BME280;27689;48.390;10.856;2023-10-08T04:12:53;96823.38;;;16.75;54.47
42001;BME280;27689;48.390;10.856;2023-10-08T04:15:38;96828.69;;;16.75;54.95
42001;BME280;27689;48.390;10.856;2023-10-08T04:18:25;96829.66;;;16.66;54.86
42001;BME280;27689;48.390;10.856;2023-10-08T04:21:10;96832.31;;;16.74;54.29
42001;BME280;27689;48.390;10.856;2023-10-08T04:23:56;96830.97;;;16.86;54.02
42001;BME280;27689;48.390;10.856;2023-10-08T04:26:41;96838.44;;;16.74;54.26
42001;BME280;27689;48.390;10.856;2023-10-08T04:29:25;96838.75;;;16.71;54.34
42001;BME280;27689;48.390;10.856;2023-10-08T04:32:10;96840.41;;;16.64;54.73
42001;BME280;27689;48.390;10.856;2023-10-08T04:35:04;96855.44;;;16.55;54.53
42001;BME280;27689;48.390;10.856;2023-10-08T04:37:51;96854.94;;;16.52;55.04
42001;BME280;27689;48.390;10.856;2023-10-08T04:40:36;96866.34;;;16.44;55.38
42001;BME280;27689;48.390;10.856;2023-10-08T04:43:31;96856.75;;;16.43;55.08
42001;BME280;27689;48.390;10.856;2023-10-08T04:46:15;96857.25;;;16.31;55.99
42001;BME280;27689;48.390;10.856;2023-10-08T04:49:25;96851.28;;;16.20;57.01
42001;BME280;27689;48.390;10.856;2023-10-08T04:52:12;96856.56;;;16.20;56.40
42001;BME280;27689;48.390;10.856;2023-10-08T04:54:59;96849.97;;;16.16;56.44
42001;BME280;27689;48.390;10.856;2023-10-08T04:57:56;96849.13;;;16.24;55.69
42001;BME280;27689;48.390;10.856;2023-10-08T05:00:40;96841.53;;;16.21;55.91
42001;BME280;27689;48.390;10.856;2023-10-08T05:03:37;96850.28;;;16.21;55.66
42001;BME280;27689;48.390;10.856;2023-10-08T05:06:34;96854.91;;;16.19;55.60
42001;BME280;27689;48.390;10.856;2023-10-08T05:09:21;96860.19;;;16.11;55.77
42001;BME280;27689;48.390;10.856;2023-10-08T05:12:05;96861.38;;;16.17;55.93
42001;BME280;27689;48.390;10.856;2023-10-08T05:14:54;96868.28;;;16.10;56.32
42001;BME280;27689;48.390;10.856;2023-10-08T05:17:57;96867.47;;;16.01;56.90
42001;BME280;27689;48.390;10.856;2023-10-08T05:20:52;96878.88;;;16.02;57.16
42001;BME280;27689;48.390;10.856;2023-10-08T05:23:43;96889.44;;;16.02;56.96
42001;BME280;27689;48.390;10.856;2023-10-08T05:26:40;96894.06;;;16.00;57.33
42001;BME280;27689;48.390;10.856;2023-10-08T05:29:33;96895.19;;;15.97;57.55
42001;BME280;27689;48.390;10.856;2023-10-08T05:32:35;96902.28;;;15.97;57.26
42001;BME280;27689;48.390;10.856;2023-10-08T05:35:30;96901.78;;;15.93;57.50
42001;BME280;27689;48.390;10.856;2023-10-08T05:38:34;96903.28;;;15.88;58.10
42001;BME280;27689;48.390;10.856;2023-10-08T05:41:19;96918.78;;;15.91;58.04
42001;BME280;27689;48.390;10.856;2023-10-08T05:44:12;96924.91;;;15.91;58.14
42001;BME280;27689;48.390;10.856;2023-10-08T05:47:03;96921.25;;;15.84;58.81
42001;BME280;27689;48.390;10.856;2023-10-08T05:50:03;96925.56;;;15.85;58.51
42001;BME280;27689;48.390;10.856;2023-10-08T05:53:05;96935.28;;;15.84;58.87
42001;BME280;27689;48.390;10.856;2023-10-08T05:56:06;96925.72;;;15.83;59.25
42001;BME280;27689;48.390;10.856;2023-10-08T05:59:10;96926.69;;;15.82;59.29
42001;BME280;27689;48.390;10.856;2023-10-08T06:02:02;96931.97;;;15.82;59.25
42001;BME280;27689;48.390;10.856;2023-10-08T06:05:08;96932.97;;;15.90;58.65
42001;BME280;27689;48.390;10.856;2023-10-08T06:07:55;96935.47;;;15.91;58.53
42001;BME280;27689;48.390;10.856;2023-10-08T06:10:39;96932.66;;;15.93;58.60
42001;BME280;27689;48.390;10.856;2023-10-08T06:13:23;96931.84;;;15.92;58.91
42001;BME280;27689;48.390;10.856;2023-10-08T06:16:13;96930.56;;;16.04;58.26
42001;BME280;27689;48.390;10.856;2023-10-08T06:19:14;96925.09;;;16.06;58.23
42001;BME280;27689;48.390;10.856;2023-10-08T06:21:58;96929.91;;;16.10;58.01
42001;BME280;27689;48.390;10.856;2023-10-08T06:24:42;96926.44;;;16.10;58.47
42001;BME280;27689;48.390;10.856;2023-10-08T06:27:27;96932.41;;;16.12;57.97
42001;BME280;27689;48.390;10.856;2023-10-08T06:30:12;96934.38;;;16.10;57.84
42001;BME280;27689;48.390;10.856;2023-10-08T06:33:00;96933.59;;;16.17;58.18
42001;BME280;27689;48.390;10.856;2023-10-08T06:35:45;96930.59;;;16.20;58.65
42001;BME280;27689;48.390;10.856;2023-10-08T06:38:29;96921.34;;;16.16;58.79
42001;BME280;27689;48.390;10.856;2023-10-08T06:41:16;96925.97;;;16.22;57.85
42001;BME280;27689;48.390;10.856;2023-10-08T06:44:04;96926.34;;;16.28;58.14
42001;BME280;27689;48.390;10.856;2023-10-08T06:46:50;96935.91;;;16.29;58.43
42001;BME280;27689;48.390;10.856;2023-10-08T06:49:37;96941.72;;;16.40;57.64
42001;BME280;27689;48.390;10.856;2023-10-08T06:52:22;96947.84;;;16.41;57.59
42001;BME280;27689;48.390;10.856;2023-10-08T06:55:07;96949.97;;;16.37;58.02
42001;BME280;27689;48.390;10.856;2023-10-08T06:57:55;96935.28;;;16.43;57.73
42001;BME280;27689;48.390;10.856;2023-10-08T07:00:39;96943.53;;;16.40;58.28
42001;BME280;27689;48.390;10.856;2023-10-08T07:03:24;96942.34;;;16.34;59.06
42001;BME280;27689;48.390;10.856;2023-10-08T07:06:08;96943.38;;;16.41;57.46
42001;BME280;27689;48.390;10.856;2023-10-08T07:09:01;96941.09;;;16.54;57.39
42001;BME280;27689;48.390;10.856;2023-10-08T07:12:06;96935.47;;;16.57;57.61
42001;BME280;27689;48.390;10.856;2023-10-08T07:14:58;96927.03;;;16.62;57.61
42001;BME280;27689;48.390;10.856;2023-10-08T07:17:42;96918.94;;;16.64;56.69
42001;BME280;27689;48.390;10.856;2023-10-08T07:20:27;96910.53;;;16.68;56.27
42001;BME280;27689;48.390;10.856;2023-10-08T07:23:12;96925.91;;;16.73;56.09
42001;BME280;27689;48.390;10.856;2023-10-08T07:26:26;96919.31;;;16.77;56.09
42001;BME280;27689;48.390;10.856;2023-10-08T07:29:19;96934.50;;;16.83;55.00
42001;BME280;27689;48.390;10.856;2023-10-08T07:32:04;96934.34;;;16.84;54.63
42001;BME280;27689;48.390;10.856;2023-10-08T07:34:55;96948.25;;;16.86;55.34
42001;BME280;27689;48.390;10.856;2023-10-08T07:37:48;96957.03;;;16.87;55.15
42001;BME280;27689;48.390;10.856;2023-10-08T07:40:32;96959.00;;;16.85;56.19
42001;BME280;27689;48.390;10.856;2023-10-08T07:43:21;96957.34;;;16.76;56.76
42001;BME280;27689;48.390;10.856;2023-10-08T07:46:05;96952.53;;;16.71;57.03
42001;BME280;27689;48.390;10.856;2023-10-08T07:48:49;96955.03;;;16.81;56.42
42001;BME280;27689;48.390;10.856;2023-10-08T07:51:33;96949.22;;;16.77;57.00
42001;BME280;27689;48.390;10.856;2023-10-08T07:54:20;96957.34;;;16.76;57.74
42001;BME280;27689;48.390;10.856;2023-10-08T07:57:06;96954.88;;;16.74;57.45
42001;BME280;27689;48.390;10.856;2023-10-08T07:59:53;96957.69;;;16.73;58.27
42001;BME280;27689;48.390;10.856;2023-10-08T08:02:45;96960.84;;;16.76;58.24
42001;BME280;27689;48.390;10.856;2023-10-08T08:05:29;96961.00;;;16.75;58.20
42001;BME280;27689;48.390;10.856;2023-10-08T08:08:13;96962.66;;;16.76;58.58
42001;BME280;27689;48.390;10.856;2023-10-08T08:11:05;96961.31;;;16.72;59.39
42001;BME280;27689;48.390;10.856;2023-10-08T08:13:50;96965.09;;;16.77;58.86
42001;BME280;27689;48.390;10.856;2023-10-08T08:16:34;96960.16;;;16.74;58.65
42001;BME280;27689;48.390;10.856;2023-10-08T08:19:20;96955.03;;;16.81;58.54
42001;BME280;27689;48.390;10.856;2023-10-08T08:22:09;96955.53;;;16.84;58.86
42001;BME280;27689;48.390;10.856;2023-10-08T08:24:58;96960.50;;;16.87;59.51
42001;BME280;27689;48.390;10.856;2023-10-08T08:27:59;96955.88;;;16.89;59.01
42001;BME280;27689;48.390;10.856;2023-10-08T08:30:44;96948.09;;;16.88;59.10
42001;BME280;27689;48.390;10.856;2023-10-08T08:33:31;96936.84;;;16.86;58.71
42001;BME280;27689;48.390;10.856;2023-10-08T08:36:35;96928.56;;;16.89;58.99
42001;BME280;27689;48.390;10.856;2023-10-08T08:39:23;96937.31;;;16.98;58.81
42001;BME280;27689;48.390;10.856;2023-10-08T08:42:20;96937.81;;;17.01;58.54
42001;BME280;27689;48.390;10.856;2023-10-08T08:45:06;96939.47;;;17.10;58.87
42001;BME280;27689;48.390;10.856;2023-10-08T08:47:53;96930.53;;;17.11;58.71
42001;BME280;27689;48.390;10.856;2023-10-08T08:50:39;96932.53;;;17.17;58.54
42001;BME280;27689;48.390;10.856;2023-10-08T08:53:23;96941.59;;;17.23;58.23
42001;BME280;27689;48.390;10.856;2023-10-08T08:56:08;96953.31;;;17.37;58.65
42001;BME280;27689;48.390;10.856;2023-10-08T08:58:57;96960.59;;;17.43;58.19
42001;BME280;27689;48.390;10.856;2023-10-08T09:01:44;96966.72;;;17.51;58.02
42001;BME280;27689;48.390;10.856;2023-10-08T09:04:31;96961.06;;;17.62;57.80
42001;BME280;27689;48.390;10.856;2023-10-08T09:07:23;96951.16;;;17.65;57.43
42001;BME280;27689;48.390;10.856;2023-10-08T09:10:08;96959.41;;;17.78;58.29
42001;BME280;27689;48.390;10.856;2023-10-08T09:12:57;96950.91;;;17.82;58.38
42001;BME280;27689;48.390;10.856;2023-10-08T09:15:42;96969.47;;;17.90;58.04
42001;BME280;27689;48.390;10.856;2023-10-08T09:18:26;96989.47;;;18.01;57.85
42001;BME280;27689;48.390;10.856;2023-10-08T09:21:13;97003.88;;;18.07;58.43
42001;BME280;27689;48.390;10.856;2023-10-08T09:23:57;97007.13;;;18.17;57.95
42001;BME280;27689;48.390;10.856;2023-10-08T09:26:45;97002.31;;;18.20;58.46
42001;BME280;27689;48.390;10.856;2023-10-08T09:29:36;97003.81;;;18.23;59.38
42001;BME280;27689;48.390;10.856;2023-10-08T09:32:23;97015.69;;;18.35;59.21
42001;BME280;27689;48.390;10.856;2023-10-08T09:35:10;97015.13;;;18.48;56.99
42001;BME280;27689;48.390;10.856;2023-10-08T09:37:55;97018.75;;;18.55;57.54
42001;BME280;27689;48.390;10.856;2023-10-08T09:40:40;97027.69;;;18.62;57.59
42001;BME280;27689;48.390;10.856;2023-10-08T09:43:26;97025.09;;;18.77;56.89
42001;BME280;27689;48.390;10.856;2023-10-08T09:46:15;97019.22;;;18.89;56.93
42001;BME280;27689;48.390;10.856;2023-10-08T09:49:01;97017.44;;;19.05;56.40
42001;BME280;27689;48.390;10.856;2023-10-08T09:51:46;97028.91;;;19.28;56.14
42001;BME280;27689;48.390;10.856;2023-10-08T09:54:33;97014.59;;;19.52;56.06
42001;BME280;27689;48.390;10.856;2023-10-08T09:57:23;97017.75;;;19.70;55.58
42001;BME280;27689;48.390;10.856;2023-10-08T10:00:10;97026.94;;;19.82;54.74
42001;BME280;27689;48.390;10.856;2023-10-08T10:03:02;97020.50;;;19.91;54.32
42001;BME280;27689;48.390;10.856;2023-10-08T10:05:48;97025.63;;;19.93;55.05
42001;BME280;27689;48.390;10.856;2023-10-08T10:08:33;97029.47;;;19.90;55.85
42001;BME280;27689;48.390;10.856;2023-10-08T10:11:19;97049.34;;;20.02;53.40
42001;BME280;27689;48.390;10.856;2023-10-08T10:14:03;97045.91;;;19.94;54.30
42001;BME280;27689;48.390;10.856;2023-10-08T10:19:59;97036.91;;;19.80;55.60
42001;BME280;27689;48.390;10.856;2023-10-08T10:22:44;97023.06;;;19.70;55.04
42001;BME280;27689;48.390;10.856;2023-10-08T10:25:34;97028.38;;;19.70;55.80
42001;BME280;27689;48.390;10.856;2023-10-08T10:31:04;97025.72;;;19.70;55.72
42001;BME280;27689;48.390;10.856;2023-10-08T10:33:48;97022.13;;;19.63;56.11
42001;BME280;27689;48.390;10.856;2023-10-08T10:36:33;97023.41;;;19.67;55.99
42001;BME280;27689;48.390;10.856;2023-10-08T10:39:18;97023.59;;;19.65;56.36
42001;BME280;27689;48.390;10.856;2023-10-08T10:42:12;97028.09;;;19.65;56.86
42001;BME280;27689;48.390;10.856;2023-10-08T10:45:05;97017.81;;;19.62;57.14
42001;BME280;27689;48.390;10.856;2023-10-08T10:47:53;97017.81;;;19.62;57.95
42001;BME280;27689;48.390;10.856;2023-10-08T10:50:46;97016.44;;;19.66;57.83
42001;BME280;27689;48.390;10.856;2023-10-08T10:53:50;97015.50;;;19.59;57.24
42001;BME280;27689;48.390;10.856;2023-10-08T10:56:52;97016.09;;;19.46;58.42
42001;BME280;27689;48.390;10.856;2023-10-08T10:59:47;97017.91;;;19.54;58.02
42001;BME280;27689;48.390;10.856;2023-10-08T11:02:37;97023.41;;;19.52;58.35
42001;BME280;27689;48.390;10.856;2023-10-08T11:05:23;97026.41;;;19.49;58.77
42001;BME280;27689;48.390;10.856;2023-10-08T11:08:12;97027.25;;;19.50;58.91
42001;BME280;27689;48.390;10.856;2023-10-08T11:10:58;97024.25;;;19.45;59.21
42001;BME280;27689;48.390;10.856;2023-10-08T11:13:42;97017.00;;;19.38;59.68
42001;BME280;27689;48.390;10.856;2023-10-08T11:16:26;97017.31;;;19.44;59.69
42001;BME280;27689;48.390;10.856;2023-10-08T11:19:11;97009.34;;;19.44;59.95
42001;BME280;27689;48.390;10.856;2023-10-08T11:21:55;97015.66;;;19.43;60.25
42001;BME280;27689;48.390;10.856;2023-10-08T11:24:39;96997.41;;;19.40;60.42
42001;BME280;27689;48.390;10.856;2023-10-08T11:27:27;97003.00;;;19.45;59.57
42001;BME280;27689;48.390;10.856;2023-10-08T11:30:19;97009.94;;;19.46;59.50
42001;BME280;27689;48.390;10.856;2023-10-08T11:33:03;97003.31;;;19.50;59.09
42001;BME280;27689;48.390;10.856;2023-10-08T11:36:07;96991.53;;;19.44;59.81
42001;BME280;27689;48.390;10.856;2023-10-08T11:39:11;96980.22;;;19.50;59.35
42001;BME280;27689;48.390;10.856;2023-10-08T11:42:05;96988.34;;;19.49;58.83
42001;BME280;27689;48.390;10.856;2023-10-08T11:45:00;96979.53;;;19.48;58.74
42001;BME280;27689;48.390;10.856;2023-10-08T11:48:01;96986.69;;;19.48;59.54
42001;BME280;27689;48.390;10.856;2023-10-08T11:50:55;96979.88;;;19.53;58.32
42001;BME280;27689;48.390;10.856;2023-10-08T11:53:45;96973.91;;;19.51;58.84
42001;BME280;27689;48.390;10.856;2023-10-08T11:56:29;96985.66;;;19.57;57.62
42001;BME280;27689;48.390;10.856;2023-10-08T11:59:13;96990.97;;;19.57;58.37
42001;BME280;27689;48.390;10.856;2023-10-08T12:01:57;96989.50;;;19.54;59.13
42001;BME280;27689;48.390;10.856;2023-10-08T12:04:41;96991.34;;;19.68;57.95
42001;BME280;27689;48.390;10.856;2023-10-08T12:07:25;96990.22;;;19.63;58.72
42001;BME280;27689;48.390;10.856;2023-10-08T12:10:11;96992.34;;;19.67;58.05
42001;BME280;27689;48.390;10.856;2023-10-08T12:12:55;97000.31;;;19.67;58.29
42001;BME280;27689;48.390;10.856;2023-10-08T12:15:39;96998.13;;;19.71;58.09
42001;BME280;27689;48.390;10.856;2023-10-08T12:18:25;96996.94;;;19.74;58.11
42001;BME280;27689;48.390;10.856;2023-10-08T12:21:09;96990.41;;;19.76;58.10
42001;BME280;27689;48.390;10.856;2023-10-08T12:23:54;96983.19;;;19.70;58.65
42001;BME280;27689;48.390;10.856;2023-10-08T12:26:39;96989.59;;;19.76;57.73
42001;BME280;27689;48.390;10.856;2023-10-08T12:29:33;96973.75;;;19.82;58.27
42001;BME280;27689;48.390;10.856;2023-10-08T12:32:19;96980.25;;;19.94;58.25
42001;BME280;27689;48.390;10.856;2023-10-08T12:35:09;96979.59;;;20.07;58.27
42001;BME280;27689;48.390;10.856;2023-10-08T12:37:56;96970.13;;;20.19;58.27
42001;BME280;27689;48.390;10.856;2023-10-08T12:40:41;96964.06;;;20.25;58.35
42001;BME280;27689;48.390;10.856;2023-10-08T12:43:41;96971.22;;;20.25;58.46
42001;BME280;27689;48.390;10.856;2023-10-08T12:46:26;96953.78;;;20.22;59.08
42001;BME280;27689;48.390;10.856;2023-10-08T12:49:10;96951.31;;;20.21;57.96
42001;BME280;27689;48.390;10.856;2023-10-08T12:51:54;96948.47;;;20.22;59.05
42001;BME280;27689;48.390;10.856;2023-10-08T12:54:38;96947.09;;;20.26;58.53
42001;BME280;27689;48.390;10.856;2023-10-08T12:57:30;96955.72;;;20.28;59.38
42001;BME280;27689;48.390;10.856;2023-10-08T13:00:18;96949.63;;;20.34;59.06
42001;BME280;27689;48.390;10.856;2023-10-08T13:03:07;96943.22;;;20.29;60.73
42001;BME280;27689;48.390;10.856;2023-10-08T13:05:59;96936.31;;;20.34;59.97
42001;BME280;27689;48.390;10.856;2023-10-08T13:08:51;96940.28;;;20.38;59.98
42001;BME280;27689;48.390;10.856;2023-10-08T13:11:36;96945.53;;;20.32;61.85
42001;BME280;27689;48.390;10.856;2023-10-08T13:14:23;96948.47;;;20.37;61.14
42001;BME280;27689;48.390;10.856;2023-10-08T13:17:07;96940.75;;;20.42;61.38
42001;BME280;27689;48.390;10.856;2023-10-08T13:19:54;96943.72;;;20.54;61.46
42001;BME280;27689;48.390;10.856;2023-10-08T13:22:39;96944.66;;;20.61;62.36
42001;BME280;27689;48.390;10.856;2023-10-08T13:25:23;96959.78;;;20.82;60.13
42001;BME280;27689;48.390;10.856;2023-10-08T13:28:08;96970.38;;;20.96;59.51
42001;BME280;27689;48.390;10.856;2023-10-08T13:30:55;96966.97;;;21.02;58.04
42001;BME280;27689;48.390;10.856;2023-10-08T13:33:41;96974.25;;;20.94;59.15
42001;BME280;27689;48.390;10.856;2023-10-08T13:36:32;96967.25;;;20.93;59.47
42001;BME280;27689;48.390;10.856;2023-10-08T13:39:16;96961.72;;;20.88;60.25
42001;BME280;27689;48.390;10.856;2023-10-08T13:42:02;96965.84;;;20.90;60.97
42001;BME280;27689;48.390;10.856;2023-10-08T13:44:47;96960.94;;;20.94;60.18
42001;BME280;27689;48.390;10.856;2023-10-08T13:47:32;96959.72;;;20.96;59.31
42001;BME280;27689;48.390;10.856;2023-10-08T13:50:17;96955.09;;;21.05;59.46
42001;BME280;27689;48.390;10.856;2023-10-08T13:53:02;96963.75;;;21.07;59.99
42001;BME280;27689;48.390;10.856;2023-10-08T13:55:47;96967.00;;;21.09;60.24
42001;BME280;27689;48.390;10.856;2023-10-08T13:58:32;96967.19;;;21.07;60.98
42001;BME280;27689;48.390;10.856;2023-10-08T14:01:19;96969.31;;;21.12;61.56
42001;BME280;27689;48.390;10.856;2023-10-08T14:04:03;96969.94;;;21.14;61.60
42001;BME280;27689;48.390;10.856;2023-10-08T14:06:49;96962.31;;;21.11;61.52
42001;BME280;27689;48.390;10.856;2023-10-08T14:09:35;96961.69;;;21.09;61.52
42001;BME280;27689;48.390;10.856;2023-10-08T14:12:25;96957.81;;;21.11;60.92
42001;BME280;27689;48.390;10.856;2023-10-08T14:15:11;96949.59;;;21.06;62.05
42001;BME280;27689;48.390;10.856;2023-10-08T14:17:58;96957.00;;;21.11;62.36
42001;BME280;27689;48.390;10.856;2023-10-08T14:20:48;96958.25;;;21.15;62.58
42001;BME280;27689;48.390;10.856;2023-10-08T14:23:38;96962.78;;;21.15;62.02
42001;BME280;27689;48.390;10.856;2023-10-08T14:26:25;96961.75;;;21.16;62.57
42001;BME280;27689;48.390;10.856;2023-10-08T14:29:09;96956.41;;;21.16;63.01
42001;BME280;27689;48.390;10.856;2023-10-08T14:32:01;96948.25;;;21.17;62.97
42001;BME280;27689;48.390;10.856;2023-10-08T14:34:45;96943.81;;;21.24;62.11
42001;BME280;27689;48.390;10.856;2023-10-08T14:37:38;96947.28;;;21.25;62.06
42001;BME280;27689;48.390;10.856;2023-10-08T14:40:57;96938.88;;;21.21;62.09
42001;BME280;27689;48.390;10.856;2023-10-08T14:44:00;96944.81;;;21.23;62.59
42001;BME280;27689;48.390;10.856;2023-10-08T14:46:48;96946.91;;;21.28;62.62